createdAt,value
2023-03-29T00:00:02.346Z,101626.59
2023-03-29T00:02:39.066Z,101620.16
2023-03-29T00:05:07.407Z,101617.03
2023-03-29T00:07:34.569Z,101618.53
2023-03-29T00:10:04.581Z,101616.88
2023-03-29T00:12:31.984Z,101617.06
2023-03-29T00:14:58.938Z,101608.34
2023-03-29T00:17:26.245Z,101609.97
2023-03-29T00:19:53.628Z,101612.81
2023-03-29T00:22:21.352Z,101600.25
2023-03-29T00:24:49.138Z,101600.91
2023-03-29T00:27:16.711Z,101603.38
2023-03-29T00:29:43.788Z,101593.81
2023-03-29T00:32:11.410Z,101600.75
2023-03-29T00:34:38.347Z,101593.09
2023-03-29T00:37:08.579Z,101587.47
2023-03-29T00:39:36.954Z,101598.53
2023-03-29T00:42:04.068Z,101590.44
2023-03-29T00:45:14.078Z,101595.38
2023-03-29T00:47:46.338Z,101585.13
2023-03-29T00:50:37.911Z,101587.09
2023-03-29T00:53:13.516Z,101581.16
2023-03-29T00:56:02.433Z,101582.28
2023-03-29T00:58:39.293Z,101579.63
2023-03-29T01:01:19.315Z,101572.16
2023-03-29T01:03:57.427Z,101566.22
2023-03-29T01:06:29.408Z,101565.22
2023-03-29T01:09:01.343Z,101563.41
2023-03-29T01:11:45.796Z,101556.59
2023-03-29T01:14:26.653Z,101546.34
2023-03-29T01:16:54.280Z,101547.66
2023-03-29T01:19:28.586Z,101547.31
2023-03-29T01:22:16.772Z,101549.78
2023-03-29T01:25:14.604Z,101537.38
2023-03-29T01:27:50.021Z,101529.44
2023-03-29T01:30:33.552Z,101538.84
2023-03-29T01:33:08.448Z,101535.19
2023-03-29T01:36:03.521Z,101526.06
2023-03-29T01:38:34.488Z,101525.06
2023-03-29T01:41:03.616Z,101515.47
2023-03-29T01:43:42.121Z,101497.59
2023-03-29T01:46:55.946Z,101496.59
2023-03-29T01:49:43.367Z,101492.84
2023-03-29T01:52:20.767Z,101479.78
2023-03-29T01:54:58.334Z,101476.13
2023-03-29T01:57:26.331Z,101477.94
2023-03-29T01:59:56.031Z,101483.06
2023-03-29T02:02:27.367Z,101464.72
2023-03-29T02:04:57.373Z,101461.25
2023-03-29T02:07:30.485Z,101456.13
2023-03-29T02:09:59.113Z,101465.72
2023-03-29T02:12:26.087Z,101458.13
2023-03-29T02:14:54.343Z,101457.31
2023-03-29T02:17:25.133Z,101460.41
2023-03-29T02:20:17.627Z,101456.94
2023-03-29T02:23:15.959Z,101454.47
2023-03-29T02:25:45.690Z,101453.00
2023-03-29T02:28:13.519Z,101458.31
2023-03-29T02:31:06.338Z,101434.38
2023-03-29T02:34:11.613Z,101451.19
2023-03-29T02:36:50.442Z,101435.19
2023-03-29T02:39:18.546Z,101434.84
2023-03-29T02:41:49.624Z,101434.00
2023-03-29T02:44:32.392Z,101430.53
2023-03-29T02:47:06.600Z,101430.53
2023-03-29T02:49:34.193Z,101416.00
2023-03-29T02:52:11.049Z,101419.50
2023-03-29T02:54:43.414Z,101409.25
2023-03-29T02:57:10.775Z,101409.16
2023-03-29T02:59:43.871Z,101410.97
2023-03-29T03:02:11.806Z,101410.03
2023-03-29T03:04:38.982Z,101396.03
2023-03-29T03:07:06.063Z,101400.50
2023-03-29T03:09:33.684Z,101405.16
2023-03-29T03:12:01.050Z,101400.72
2023-03-29T03:14:28.160Z,101401.09
2023-03-29T03:16:57.764Z,101384.91
2023-03-29T03:19:24.860Z,101397.97
2023-03-29T03:21:52.036Z,101387.44
2023-03-29T03:24:19.139Z,101384.63
2023-03-29T03:26:46.473Z,101385.78
2023-03-29T03:29:15.734Z,101383.00
2023-03-29T03:32:12.290Z,101376.75
2023-03-29T03:34:58.853Z,101377.28
2023-03-29T03:37:27.968Z,101378.91
2023-03-29T03:39:55.603Z,101378.63
2023-03-29T03:42:23.698Z,101376.50
2023-03-29T03:44:50.658Z,101369.56
2023-03-29T03:47:40.978Z,101369.91
2023-03-29T03:50:52.937Z,101376.84
2023-03-29T03:53:21.653Z,101377.53
2023-03-29T03:56:15.235Z,101379.00
2023-03-29T03:59:01.012Z,101385.47
2023-03-29T04:01:30.744Z,101366.31
2023-03-29T04:04:14.354Z,101369.13
2023-03-29T04:06:51.228Z,101363.66
2023-03-29T04:09:38.909Z,101358.72
2023-03-29T04:12:29.188Z,101360.84
2023-03-29T04:14:56.129Z,101359.69
2023-03-29T04:17:24.997Z,101366.44
2023-03-29T04:19:58.689Z,101370.56
2023-03-29T04:22:28.307Z,101364.63
2023-03-29T04:24:55.614Z,101371.03
2023-03-29T04:27:50.450Z,101369.88
2023-03-29T04:30:37.722Z,101363.75
2023-03-29T04:33:33.881Z,101351.72
2023-03-29T04:36:01.708Z,101356.13
2023-03-29T04:38:30.805Z,101349.84
2023-03-29T04:41:01.055Z,101348.50
2023-03-29T04:43:48.195Z,101350.31
2023-03-29T04:46:26.988Z,101336.09
2023-03-29T04:49:12.832Z,101342.69
2023-03-29T04:51:43.396Z,101346.78
2023-03-29T04:54:12.418Z,101349.28
2023-03-29T04:57:23.514Z,101341.84
2023-03-29T05:00:26.887Z,101341.66
2023-03-29T05:03:14.510Z,101332.53
2023-03-29T05:06:03.060Z,101340.59
2023-03-29T05:08:30.379Z,101329.84
2023-03-29T05:11:11.957Z,101331.13
2023-03-29T05:13:39.220Z,101331.13
2023-03-29T05:16:07.846Z,101322.13
2023-03-29T05:18:35.658Z,101331.81
2023-03-29T05:21:04.471Z,101331.13
2023-03-29T05:23:34.245Z,101320.34
2023-03-29T05:26:30.521Z,101318.00
2023-03-29T05:28:58.015Z,101318.91
2023-03-29T05:31:26.396Z,101328.97
2023-03-29T05:33:55.111Z,101318.84
2023-03-29T05:36:23.408Z,101325.69
2023-03-29T05:38:51.064Z,101317.59
2023-03-29T05:41:20.678Z,101312.19
2023-03-29T05:44:26.605Z,101317.09
2023-03-29T05:46:59.685Z,101299.38
2023-03-29T05:49:27.015Z,101306.03
2023-03-29T05:52:08.585Z,101316.72
2023-03-29T05:54:37.396Z,101305.38
2023-03-29T05:57:06.192Z,101308.50
2023-03-29T05:59:33.814Z,101304.09
2023-03-29T06:02:03.329Z,101308.47
2023-03-29T06:04:31.834Z,101306.28
2023-03-29T06:07:18.327Z,101302.06
2023-03-29T06:10:00.836Z,101297.41
2023-03-29T06:12:28.284Z,101302.78
2023-03-29T06:15:04.702Z,101302.72
2023-03-29T06:17:47.148Z,101305.91
2023-03-29T06:20:15.414Z,101309.91
2023-03-29T06:22:48.083Z,101305.94
2023-03-29T06:25:15.524Z,101308.28
2023-03-29T06:27:46.824Z,101307.97
2023-03-29T06:30:16.905Z,101296.03
2023-03-29T06:32:50.540Z,101312.13
2023-03-29T06:35:38.042Z,101301.38
2023-03-29T06:38:09.327Z,101286.50
2023-03-29T06:41:05.843Z,101297.69
2023-03-29T06:43:51.062Z,101296.16
2023-03-29T06:46:19.062Z,101291.31
2023-03-29T06:48:56.983Z,101291.81
2023-03-29T06:51:29.812Z,101279.63
2023-03-29T06:53:56.924Z,101284.38
2023-03-29T06:56:23.957Z,101290.19
2023-03-29T06:58:59.895Z,101277.53
2023-03-29T07:01:34.611Z,101267.75
2023-03-29T07:04:17.743Z,101272.88
2023-03-29T07:07:06.088Z,101271.50
2023-03-29T07:09:35.823Z,101280.31
2023-03-29T07:12:26.462Z,101283.25
2023-03-29T07:14:58.509Z,101266.06
2023-03-29T07:17:37.966Z,101270.56
2023-03-29T07:20:10.633Z,101281.84
2023-03-29T07:22:48.497Z,101282.72
2023-03-29T07:25:17.124Z,101283.75
2023-03-29T07:27:45.022Z,101280.88
2023-03-29T07:30:16.852Z,101280.88
2023-03-29T07:32:46.458Z,101284.56
2023-03-29T07:35:27.873Z,101268.56
2023-03-29T07:37:56.061Z,101277.19
2023-03-29T07:40:24.470Z,101283.31
2023-03-29T07:42:58.777Z,101274.91
2023-03-29T07:45:30.837Z,101272.63
2023-03-29T07:48:05.526Z,101263.19
2023-03-29T07:50:47.031Z,101260.31
2023-03-29T07:53:15.874Z,101267.69
2023-03-29T07:55:47.542Z,101269.09
2023-03-29T07:58:35.241Z,101263.75
2023-03-29T08:01:02.709Z,101260.22
2023-03-29T08:03:53.265Z,101249.47
2023-03-29T08:06:26.515Z,101245.50
2023-03-29T08:08:54.125Z,101253.75
2023-03-29T08:11:21.205Z,101245.19
2023-03-29T08:14:01.460Z,101258.22
2023-03-29T08:16:52.519Z,101259.47
2023-03-29T08:19:20.815Z,101258.88
2023-03-29T08:22:04.590Z,101261.66
2023-03-29T08:25:07.290Z,101247.19
2023-03-29T08:27:39.735Z,101245.38
2023-03-29T08:30:10.241Z,101257.97
2023-03-29T08:32:39.306Z,101254.25
2023-03-29T08:35:09.644Z,101253.84
2023-03-29T08:38:02.666Z,101245.41
2023-03-29T08:40:30.627Z,101243.47
2023-03-29T08:43:18.927Z,101235.22
2023-03-29T08:46:35.440Z,101233.03
2023-03-29T08:49:40.133Z,101243.03
2023-03-29T08:52:36.708Z,101242.81
2023-03-29T08:55:40.500Z,101239.03
2023-03-29T08:58:44.168Z,101213.88
2023-03-29T09:01:11.706Z,101210.78
2023-03-29T09:04:21.711Z,101218.09
2023-03-29T09:07:11.490Z,101205.34
2023-03-29T09:09:43.662Z,101202.84
2023-03-29T09:12:48.811Z,101194.00
2023-03-29T09:15:24.129Z,101192.63
2023-03-29T09:18:30.563Z,101199.41
2023-03-29T09:21:09.551Z,101199.25
2023-03-29T09:24:07.637Z,101192.81
2023-03-29T09:26:57.121Z,101185.03
2023-03-29T09:29:53.220Z,101191.78
2023-03-29T09:32:33.058Z,101180.09
2023-03-29T09:35:18.860Z,101182.69
2023-03-29T09:37:50.056Z,101191.09
2023-03-29T09:40:42.851Z,101190.25
2023-03-29T09:43:28.691Z,101194.06
2023-03-29T09:46:01.070Z,101187.56
2023-03-29T09:48:32.173Z,101181.16
2023-03-29T09:51:02.060Z,101182.03
2023-03-29T09:53:29.289Z,101190.72
2023-03-29T09:56:04.577Z,101159.19
2023-03-29T09:58:46.423Z,101171.44
2023-03-29T10:01:17.493Z,101155.66
2023-03-29T10:03:52.321Z,101149.91
2023-03-29T10:06:23.816Z,101146.72
2023-03-29T10:08:58.401Z,101153.75
2023-03-29T10:11:41.560Z,101161.31
2023-03-29T10:14:20.633Z,101146.09
2023-03-29T10:16:56.890Z,101141.78
2023-03-29T10:19:35.808Z,101136.63
2023-03-29T10:22:08.179Z,101124.16
2023-03-29T10:24:35.174Z,101131.53
2023-03-29T10:27:07.818Z,101126.72
2023-03-29T10:29:42.406Z,101122.31
2023-03-29T10:32:28.530Z,101115.69
2023-03-29T10:35:00.012Z,101121.03
2023-03-29T10:37:29.068Z,101085.00
2023-03-29T10:39:56.145Z,101096.66
2023-03-29T10:42:25.274Z,101109.66
2023-03-29T10:44:58.447Z,101115.88
2023-03-29T10:47:34.204Z,101114.22
2023-03-29T10:50:01.796Z,101099.50
2023-03-29T10:52:30.466Z,101107.06
2023-03-29T10:54:59.247Z,101098.66
2023-03-29T10:58:12.211Z,101101.47
2023-03-29T11:00:56.933Z,101091.25
2023-03-29T11:03:53.932Z,101091.53
2023-03-29T11:06:37.069Z,101091.19
2023-03-29T11:09:48.244Z,101081.34
2023-03-29T11:12:38.830Z,101092.59
2023-03-29T11:15:49.438Z,101091.50
2023-03-29T11:18:45.298Z,101090.25
2023-03-29T11:21:27.982Z,101110.56
2023-03-29T11:24:51.928Z,101080.44
2023-03-29T11:27:41.029Z,101093.94
2023-03-29T11:30:42.347Z,101091.50
2023-03-29T11:33:25.778Z,101090.22
2023-03-29T11:36:05.091Z,101094.19
2023-03-29T11:39:09.500Z,101088.00
2023-03-29T11:41:42.487Z,101078.78
2023-03-29T11:44:30.984Z,101075.03
2023-03-29T11:47:09.999Z,101071.03
2023-03-29T11:50:04.720Z,101074.59
2023-03-29T11:52:42.876Z,101060.19
2023-03-29T11:55:20.147Z,101066.22
2023-03-29T11:57:53.997Z,101069.22
2023-03-29T12:00:38.601Z,101063.19
2023-03-29T12:03:20.989Z,101054.38
2023-03-29T12:06:18.806Z,101059.53
2023-03-29T12:09:01.351Z,101056.31
2023-03-29T12:12:00.145Z,101058.56
2023-03-29T12:15:03.617Z,101049.25
2023-03-29T12:17:42.388Z,101048.56
2023-03-29T12:20:28.157Z,101038.66
2023-03-29T12:22:58.404Z,101032.53
2023-03-29T12:25:40.902Z,101037.50
2023-03-29T12:28:49.776Z,101040.75
2023-03-29T12:31:32.788Z,101029.69
2023-03-29T12:34:26.034Z,101045.34
2023-03-29T12:37:21.952Z,101038.75
2023-03-29T12:40:15.501Z,101044.88
2023-03-29T12:43:32.829Z,101039.34
2023-03-29T12:46:26.041Z,101035.31
2023-03-29T12:48:58.336Z,101032.31
2023-03-29T12:51:33.562Z,101024.72
2023-03-29T12:54:25.033Z,101032.22
2023-03-29T12:56:54.508Z,101023.81
2023-03-29T12:59:38.001Z,101019.50
2023-03-29T13:02:14.152Z,101015.63
2023-03-29T13:04:44.248Z,101014.75
2023-03-29T13:07:27.921Z,101009.25
2023-03-29T13:10:02.315Z,100994.81
2023-03-29T13:12:33.659Z,100991.22
2023-03-29T13:15:05.406Z,100996.41
2023-03-29T13:18:01.134Z,101012.81
2023-03-29T13:20:46.764Z,101000.88
2023-03-29T13:23:51.566Z,100999.47
2023-03-29T13:26:37.556Z,101009.94
2023-03-29T13:29:30.068Z,101009.34
2023-03-29T13:32:39.317Z,101013.38
2023-03-29T13:35:21.091Z,101016.31
2023-03-29T13:38:35.879Z,101009.75
2023-03-29T13:41:04.896Z,101015.28
2023-03-29T13:43:46.238Z,101018.25
2023-03-29T13:46:41.360Z,101004.31
2023-03-29T13:49:29.120Z,101001.44
2023-03-29T13:52:41.828Z,101003.56
2023-03-29T13:55:26.917Z,101000.50
2023-03-29T13:58:07.570Z,100999.13
2023-03-29T14:00:46.213Z,100999.28
2023-03-29T14:03:16.283Z,101003.47
2023-03-29T14:05:50.637Z,100996.78
2023-03-29T14:08:33.988Z,100985.63
2023-03-29T14:11:09.199Z,100992.16
2023-03-29T14:13:37.234Z,100976.13
2023-03-29T14:16:08.676Z,100996.63
2023-03-29T14:18:40.498Z,101007.06
2023-03-29T14:21:08.553Z,100993.00
2023-03-29T14:23:38.245Z,100996.50
2023-03-29T14:26:15.293Z,100998.06
2023-03-29T14:28:56.771Z,101005.06
2023-03-29T14:31:29.756Z,100994.50
2023-03-29T14:34:00.054Z,100993.63
2023-03-29T14:36:29.708Z,100989.06
2023-03-29T14:39:03.567Z,100993.31
2023-03-29T14:41:36.652Z,100994.84
2023-03-29T14:44:06.692Z,100987.19
2023-03-29T14:46:35.070Z,100989.56
2023-03-29T14:49:02.388Z,100975.22
2023-03-29T14:51:31.061Z,100985.81
2023-03-29T14:54:01.035Z,100980.28
2023-03-29T14:56:29.313Z,100979.22
2023-03-29T14:58:57.576Z,100980.28
2023-03-29T15:01:27.037Z,100978.41
2023-03-29T15:04:01.913Z,100971.97
2023-03-29T15:06:30.915Z,100978.72
2023-03-29T15:09:06.201Z,100989.31
2023-03-29T15:11:35.135Z,100966.69
2023-03-29T15:14:09.178Z,100970.50
2023-03-29T15:16:42.682Z,100974.88
2023-03-29T15:19:18.885Z,100975.94
2023-03-29T15:21:49.852Z,100974.56
2023-03-29T15:24:32.546Z,100964.94
2023-03-29T15:27:13.692Z,100960.88
2023-03-29T15:29:43.275Z,100957.94
2023-03-29T15:32:24.207Z,100961.94
2023-03-29T15:35:09.151Z,100958.19
2023-03-29T15:37:36.807Z,100950.06
2023-03-29T15:40:09.603Z,100956.25
2023-03-29T15:42:36.838Z,100938.69
2023-03-29T15:45:06.594Z,100933.72
2023-03-29T15:47:36.323Z,100924.13
2023-03-29T15:50:03.519Z,100921.50
2023-03-29T15:52:31.824Z,100921.81
2023-03-29T15:54:58.878Z,100915.38
2023-03-29T15:57:26.066Z,100920.25
2023-03-29T15:59:53.037Z,100913.25
2023-03-29T16:02:24.322Z,100902.94
2023-03-29T16:07:42.817Z,100900.06
2023-03-29T16:10:10.190Z,100896.63
2023-03-29T16:12:38.409Z,100892.00
2023-03-29T16:15:18.703Z,100895.81
2023-03-29T16:17:45.734Z,100880.69
2023-03-29T16:20:19.838Z,100892.81
2023-03-29T16:22:48.935Z,100893.88
2023-03-29T16:25:23.597Z,100902.50
2023-03-29T16:27:52.809Z,100897.88
2023-03-29T16:30:20.084Z,100904.88
2023-03-29T16:32:47.129Z,100908.88
2023-03-29T16:35:25.245Z,100907.56
2023-03-29T16:37:52.464Z,100897.22
2023-03-29T16:40:21.116Z,100910.19
2023-03-29T16:42:48.547Z,100900.72
2023-03-29T16:45:16.259Z,100898.38
2023-03-29T16:47:44.359Z,100895.19
2023-03-29T16:50:14.065Z,100898.13
2023-03-29T16:52:42.170Z,100895.44
2023-03-29T16:55:12.206Z,100905.38
2023-03-29T16:57:40.098Z,100903.97
2023-03-29T17:00:15.986Z,100893.41
2023-03-29T17:02:43.669Z,100884.53
2023-03-29T17:05:12.412Z,100891.22
2023-03-29T17:07:39.915Z,100895.75
2023-03-29T17:10:09.255Z,100894.31
2023-03-29T17:12:36.936Z,100885.69
2023-03-29T17:15:06.418Z,100884.16
2023-03-29T17:17:34.679Z,100887.25
2023-03-29T17:20:01.659Z,100872.84
2023-03-29T17:22:28.616Z,100885.47
2023-03-29T17:24:55.671Z,100872.78
2023-03-29T17:27:22.566Z,100879.78
2023-03-29T17:29:49.817Z,100880.84
2023-03-29T17:32:16.958Z,100879.22
2023-03-29T17:34:44.030Z,100885.31
2023-03-29T17:37:13.156Z,100879.13
2023-03-29T17:39:41.942Z,100886.06
2023-03-29T17:42:09.074Z,100874.75
2023-03-29T17:44:36.005Z,100871.00
2023-03-29T17:47:03.054Z,100875.81
2023-03-29T17:49:30.067Z,100867.69
2023-03-29T17:51:57.130Z,100873.06
2023-03-29T17:54:24.156Z,100877.28
2023-03-29T17:56:51.249Z,100881.59
2023-03-29T17:59:18.788Z,100876.22
2023-03-29T18:01:45.917Z,100878.09
2023-03-29T18:04:12.813Z,100878.34
2023-03-29T18:06:39.724Z,100884.22
2023-03-29T18:09:06.710Z,100877.78
2023-03-29T18:11:33.896Z,100877.53
2023-03-29T18:14:01.679Z,100875.91
2023-03-29T18:16:28.951Z,100872.66
2023-03-29T18:18:56.423Z,100875.59
2023-03-29T18:21:25.995Z,100880.63
2023-03-29T18:23:56.253Z,100877.47
2023-03-29T18:26:24.150Z,100878.53
2023-03-29T18:28:51.582Z,100880.41
2023-03-29T18:31:19.834Z,100885.75
2023-03-29T18:33:47.985Z,100876.91
2023-03-29T18:36:15.377Z,100887.38
2023-03-29T18:38:43.606Z,100881.22
2023-03-29T18:41:13.681Z,100883.88
2023-03-29T18:43:42.914Z,100875.34
2023-03-29T18:46:10.012Z,100885.53
2023-03-29T18:48:38.799Z,100878.53
2023-03-29T18:51:11.207Z,100884.94
2023-03-29T18:53:41.456Z,100888.69
2023-03-29T18:56:08.661Z,100885.19
2023-03-29T18:58:36.318Z,100880.41
2023-03-29T19:01:05.983Z,100894.38
2023-03-29T19:03:34.740Z,100883.06
2023-03-29T19:06:03.225Z,100886.56
2023-03-29T19:08:30.420Z,100889.50
2023-03-29T19:11:05.844Z,100878.19
2023-03-29T19:13:33.073Z,100883.00
2023-03-29T19:16:06.397Z,100878.69
2023-03-29T19:18:34.178Z,100878.94
2023-03-29T19:21:01.564Z,100867.38
2023-03-29T19:23:28.838Z,100868.69
2023-03-29T19:25:59.076Z,100869.25
2023-03-29T19:28:27.470Z,100870.06
2023-03-29T19:30:56.344Z,100862.50
2023-03-29T19:33:23.734Z,100868.78
2023-03-29T19:35:51.846Z,100881.69
2023-03-29T19:38:20.561Z,100868.84
2023-03-29T19:40:50.583Z,100864.53
2023-03-29T19:43:20.940Z,100866.97
2023-03-29T19:45:50.286Z,100849.41
2023-03-29T19:48:23.677Z,100859.66
2023-03-29T19:50:51.369Z,100856.72
2023-03-29T19:53:18.344Z,100850.56
2023-03-29T19:55:45.952Z,100837.06
2023-03-29T19:58:13.038Z,100839.25
2023-03-29T20:00:42.011Z,100839.00
2023-03-29T20:03:10.112Z,100842.75
2023-03-29T20:05:39.611Z,100830.88
2023-03-29T20:08:07.773Z,100840.56
2023-03-29T20:10:36.310Z,100832.50
2023-03-29T20:13:05.654Z,100834.88
2023-03-29T20:15:32.777Z,100834.06
2023-03-29T20:18:00.377Z,100824.88
2023-03-29T20:20:28.478Z,100818.91
2023-03-29T20:23:04.513Z,100826.50
2023-03-29T20:25:35.561Z,100822.41
2023-03-29T20:28:03.902Z,100814.59
2023-03-29T20:30:30.992Z,100830.69
2023-03-29T20:32:57.983Z,100818.00
2023-03-29T20:35:25.355Z,100829.56
2023-03-29T20:37:53.149Z,100822.31
2023-03-29T20:40:20.846Z,100812.97
2023-03-29T20:42:48.982Z,100811.84
2023-03-29T20:45:19.474Z,100799.72
2023-03-29T20:47:57.662Z,100809.66
2023-03-29T20:50:26.358Z,100799.91
2023-03-29T20:52:54.682Z,100801.28
2023-03-29T20:55:23.473Z,100801.78
2023-03-29T20:57:54.212Z,100800.94
2023-03-29T21:00:22.348Z,100791.28
2023-03-29T21:02:49.370Z,100797.13
2023-03-29T21:05:16.429Z,100792.25
2023-03-29T21:07:44.782Z,100785.59
2023-03-29T21:10:12.420Z,100780.47
2023-03-29T21:12:41.018Z,100779.66
2023-03-29T21:15:10.598Z,100783.16
2023-03-29T21:17:38.072Z,100789.66
2023-03-29T21:20:11.186Z,100781.13
2023-03-29T21:22:39.205Z,100780.31
2023-03-29T21:25:12.462Z,100779.00
2023-03-29T21:27:39.456Z,100771.19
2023-03-29T21:30:08.082Z,100768.53
2023-03-29T21:32:35.704Z,100771.53
2023-03-29T21:35:02.783Z,100773.16
2023-03-29T21:37:29.695Z,100760.47
2023-03-29T21:39:56.560Z,100770.72
2023-03-29T21:42:23.805Z,100763.16
2023-03-29T21:44:51.167Z,100752.75
2023-03-29T21:47:18.060Z,100754.03
2023-03-29T21:49:45.373Z,100744.63
2023-03-29T21:52:12.434Z,100744.38
2023-03-29T21:54:39.475Z,100747.63
2023-03-29T21:57:06.531Z,100746.00
2023-03-29T21:59:33.617Z,100738.19
2023-03-29T22:02:01.131Z,100740.88
2023-03-29T22:04:36.558Z,100729.28
2023-03-29T22:07:05.969Z,100731.22
2023-03-29T22:09:34.876Z,100726.66
2023-03-29T22:12:03.275Z,100722.34
2023-03-29T22:14:35.120Z,100727.72
2023-03-29T22:17:07.430Z,100724.72
2023-03-29T22:19:39.550Z,100720.34
2023-03-29T22:22:13.515Z,100722.78
2023-03-29T22:24:42.035Z,100732.13
2023-03-29T22:27:10.635Z,100725.13
2023-03-29T22:29:37.753Z,100726.69
2023-03-29T22:32:05.819Z,100731.25
2023-03-29T22:34:33.195Z,100722.06
2023-03-29T22:37:00.275Z,100723.13
2023-03-29T22:39:27.363Z,100724.41
2023-03-29T22:41:54.413Z,100716.38
2023-03-29T22:44:21.364Z,100713.38
2023-03-29T22:46:48.449Z,100705.56
2023-03-29T22:49:15.303Z,100715.00
2023-03-29T22:51:42.380Z,100713.13
2023-03-29T22:54:09.343Z,100714.75
2023-03-29T22:56:36.429Z,100706.72
2023-03-29T22:59:03.482Z,100710.19
2023-03-29T23:01:30.655Z,100704.28
2023-03-29T23:03:57.796Z,100692.97
2023-03-29T23:06:24.787Z,100697.59
2023-03-29T23:08:51.834Z,100691.19
2023-03-29T23:11:18.926Z,100684.19
2023-03-29T23:13:48.923Z,100683.16
2023-03-29T23:16:16.365Z,100676.97
2023-03-29T23:18:43.501Z,100669.50
2023-03-29T23:21:10.620Z,100672.16
2023-03-29T23:23:38.396Z,100671.09
2023-03-29T23:26:08.965Z,100675.66
2023-03-29T23:28:36.078Z,100667.31
2023-03-29T23:31:12.554Z,100675.91
2023-03-29T23:33:41.396Z,100671.03
2023-03-29T23:36:15.424Z,100663.50
2023-03-29T23:38:45.962Z,100670.22
2023-03-29T23:41:17.639Z,100665.09
2023-03-29T23:43:46.871Z,100665.34
2023-03-29T23:46:16.899Z,100664.31
2023-03-29T23:48:51.962Z,100667.53
2023-03-29T23:51:22.930Z,100656.25
2023-03-29T23:53:50.699Z,100653.00
2023-03-29T23:56:17.585Z,100640.09
2023-03-29T23:58:44.779Z,100646.84
